Time;durP1;ratioP1;P1;durP2;ratioP2;P2;SDS_P1;SDS_P2;PMS_P1;PMS_P2;Temp;Humidity;BMP_temperature;BMP_pressure;BME280_temperature;BME280_humidity;BME280_pressure;Samples;Min_cycle;Max_cycle;Signal;HPM_P1;HPM_P2
2021/11/24 00:06:16;;;;;;;1999.90;999.90;;;;;;;9.42;81.34;102101.47;15611246;28;20049;-61
2021/11/24 00:13:50;;;;;;;1999.90;999.90;;;;;;;9.46;81.33;102094.19;15645329;28;20136;-60
2021/11/24 00:21:23;;;;;;;1999.90;999.90;;;;;;;9.60;80.80;102095.19;15634117;28;20100;-60
2021/11/24 00:28:57;;;;;;;1999.90;999.90;;;;;;;9.47;81.74;102088.31;15642914;28;20053;-56
2021/11/24 00:36:30;;;;;;;1999.90;999.90;;;;;;;9.54;80.79;102087.97;15640804;28;20045;-57
2021/11/24 00:44:04;;;;;;;1999.90;999.90;;;;;;;9.54;81.49;102082.41;15673090;28;20044;-59
2021/11/24 00:51:38;;;;;;;1999.90;999.90;;;;;;;9.57;81.50;102089.34;15648347;28;20077;-56
2021/11/24 00:59:12;;;;;;;1999.90;999.90;;;;;;;9.43;81.98;102081.66;15675183;28;20068;-57
2021/11/24 01:06:45;;;;;;;1999.90;999.90;;;;;;;9.71;81.27;102081.97;15642464;28;20048;-58
2021/11/24 01:14:19;;;;;;;1999.90;999.90;;;;;;;9.52;81.43;102079.91;15658799;28;20029;-58
2021/11/24 01:21:52;;;;;;;1999.90;999.90;;;;;;;9.41;81.32;102072.78;15612502;28;20404;-58
2021/11/24 01:29:29;;;;;;;1999.90;999.90;;;;;;;9.46;81.28;102074.69;15657140;28;20112;-57
2021/11/24 01:37:02;;;;;;;1999.90;999.90;;;;;;;9.36;81.03;102077.56;15657196;28;20508;-58
2021/11/24 01:44:37;;;;;;;1999.90;999.90;;;;;;;9.61;79.57;102070.94;15657682;28;20037;-57
2021/11/24 01:52:11;;;;;;;1999.90;999.90;;;;;;;9.64;79.83;102068.38;15634321;28;20046;-57
2021/11/24 01:59:47;;;;;;;1999.90;999.90;;;;;;;9.63;80.00;102057.53;15669797;28;20045;-60
2021/11/24 02:07:20;;;;;;;1999.90;999.90;;;;;;;9.57;80.49;102061.47;15642272;28;20049;-59
2021/11/24 02:14:54;;;;;;;1999.90;999.90;;;;;;;9.57;80.80;102064.25;15620479;28;20450;-58
2021/11/24 02:22:28;;;;;;;1999.90;999.90;;;;;;;9.32;81.17;102052.25;15664115;28;20424;-58
2021/11/24 02:30:01;;;;;;;1999.90;999.90;;;;;;;9.58;80.79;102038.06;15665110;28;20120;-60
2021/11/24 02:37:36;;;;;;;1999.90;999.90;;;;;;;9.51;80.45;102035.63;15649012;28;20072;-60
2021/11/24 02:45:10;;;;;;;1999.90;999.90;;;;;;;9.44;80.46;102041.53;15672259;28;20044;-60
2021/11/24 02:52:44;;;;;;;1999.90;999.90;;;;;;;9.31;80.98;102033.88;15640672;28;20070;-58
2021/11/24 03:00:19;;;;;;;1999.90;999.90;;;;;;;9.33;80.81;102014.91;15654974;28;20146;-59
2021/11/24 03:07:54;;;;;;;1999.90;999.90;;;;;;;9.39;80.93;102019.31;15650734;28;20073;-59
2021/11/24 03:15:27;;;;;;;1999.90;999.90;;;;;;;9.15;81.14;102008.09;15659668;28;20055;-60
2021/11/24 03:23:02;;;;;;;1999.90;999.90;;;;;;;9.38;80.62;102008.44;15641106;28;20037;-60
2021/11/24 03:30:35;;;;;;;1999.90;999.90;;;;;;;8.98;81.60;101996.56;15649673;28;20454;-59
2021/11/24 03:38:10;;;;;;;1999.90;999.90;;;;;;;9.22;81.52;101994.66;15641169;28;20137;-57
2021/11/24 03:45:43;;;;;;;1999.90;999.90;;;;;;;9.29;81.18;102001.88;15651744;28;20080;-57
2021/11/24 03:53:17;;;;;;;1999.90;999.90;;;;;;;9.21;81.57;101989.41;15654562;28;20049;-62
2021/11/24 04:00:50;;;;;;;1999.90;999.90;;;;;;;9.19;81.62;101986.91;15634046;28;20126;-57
2021/11/24 04:08:25;;;;;;;1999.90;999.90;;;;;;;9.07;81.97;101989.25;15663350;28;20111;-56
2021/11/24 04:15:58;;;;;;;1999.90;999.90;;;;;;;9.34;81.23;101990.66;15655638;28;20037;-58
2021/11/24 04:23:32;;;;;;;1999.90;999.90;;;;;;;9.31;81.27;101985.69;15647037;28;20048;-57
2021/11/24 04:31:08;;;;;;;1999.90;999.90;;;;;;;9.23;81.15;101976.84;15650700;28;20156;-57
2021/11/24 04:38:43;;;;;;;1999.90;999.90;;;;;;;9.43;80.34;101978.59;15697661;22;20041;-68
2021/11/24 04:46:17;;;;;;;1999.90;999.90;;;;;;;9.42;79.90;101988.06;15702278;28;20045;-67
2021/11/24 04:53:51;;;;;;;1999.90;999.90;;;;;;;9.34;80.58;101987.88;15686272;28;20037;-68
2021/11/24 05:01:25;;;;;;;1999.90;999.90;;;;;;;9.65;79.84;101988.38;15686039;28;20068;-68
2021/11/24 05:08:59;;;;;;;1999.90;999.90;;;;;;;9.37;80.79;101992.84;15685040;28;20041;-68
2021/11/24 05:16:33;;;;;;;1999.90;999.90;;;;;;;9.33;80.84;101980.66;15682915;28;20072;-66
2021/11/24 05:24:07;;;;;;;1999.90;999.90;;;;;;;9.46;80.41;101988.31;15683530;28;20124;-67
2021/11/24 05:31:40;;;;;;;1999.90;999.90;;;;;;;9.55;79.92;101984.56;15672810;28;20075;-67
2021/11/24 05:39:15;;;;;;;1999.90;999.90;;;;;;;9.40;80.51;101979.19;15642666;28;20055;-67
2021/11/24 05:46:52;;;;;;;1999.90;999.90;;;;;;;9.33;80.86;101970.31;15665248;28;20115;-68
2021/11/24 05:54:26;;;;;;;1999.90;999.90;;;;;;;9.31;81.13;101980.13;15658189;28;20502;-66
2021/11/24 06:02:00;;;;;;;1999.90;999.90;;;;;;;9.49;80.30;101974.63;15681806;28;20413;-66
2021/11/24 06:09:34;;;;;;;1999.90;999.90;;;;;;;9.35;80.56;101967.25;15683819;28;20405;-70
2021/11/24 06:17:07;;;;;;;1999.90;999.90;;;;;;;9.55;80.51;101967.84;15664315;28;20052;-66
2021/11/24 06:24:41;;;;;;;1999.90;999.90;;;;;;;9.58;79.72;101971.16;15680034;28;20060;-67
2021/11/24 06:32:14;;;;;;;1999.90;999.90;;;;;;;9.38;80.62;101958.28;15678491;28;20489;-68
2021/11/24 06:39:48;;;;;;;1999.90;999.90;;;;;;;9.36;81.21;101971.69;15678183;28;20056;-67
2021/11/24 06:47:21;;;;;;;1999.90;999.90;;;;;;;9.44;80.89;101973.84;15647677;28;20049;-67
2021/11/24 06:54:55;;;;;;;1999.90;999.90;;;;;;;9.55;79.74;101979.00;15651341;28;20051;-67
2021/11/24 07:02:28;;;;;;;1999.90;999.90;;;;;;;9.73;79.10;101973.78;15681810;28;20049;-67
2021/11/24 07:10:04;;;;;;;1999.90;999.90;;;;;;;9.60;80.01;101980.09;15679858;28;20075;-67
2021/11/24 07:17:37;;;;;;;1999.90;999.90;;;;;;;9.82;78.90;101985.97;15679652;28;20049;-67
2021/11/24 07:25:13;;;;;;;1999.90;999.90;;;;;;;9.69;79.75;101987.50;15677303;28;20045;-67
2021/11/24 07:32:46;;;;;;;1999.90;999.90;;;;;;;9.48;79.94;101978.53;15676707;28;20291;-67
2021/11/24 07:40:21;;;;;;;1999.90;999.90;;;;;;;9.69;79.19;101995.88;15677753;28;20051;-67
2021/11/24 07:47:56;;;;;;;1999.90;999.90;;;;;;;9.66;79.69;101990.03;15676782;28;20045;-67
2021/11/24 07:55:30;;;;;;;1999.90;999.90;;;;;;;9.25;80.75;101987.69;15677046;28;20076;-66
2021/11/24 08:03:03;;;;;;;1999.90;999.90;;;;;;;9.74;78.86;101984.66;15675180;28;20460;-67
2021/11/24 08:10:37;;;;;;;1999.90;999.90;;;;;;;9.65;79.53;101977.22;15675370;28;20461;-66
2021/11/24 08:18:10;;;;;;;1999.90;999.90;;;;;;;9.46;79.77;101977.16;15669854;28;20059;-67
2021/11/24 08:25:44;;;;;;;1999.90;999.90;;;;;;;9.59;79.07;101968.13;15653589;28;20141;-68
2021/11/24 08:33:18;;;;;;;1999.90;999.90;;;;;;;9.75;78.88;101958.44;15657777;28;20075;-68
2021/11/24 08:40:52;;;;;;;1999.90;999.90;;;;;;;9.93;79.15;101954.03;15674322;28;20076;-68
2021/11/24 08:48:26;;;;;;;1999.90;999.90;;;;;;;9.82;79.52;101967.28;15657185;28;20141;-68
2021/11/24 08:56:00;;;;;;;1999.90;999.90;;;;;;;9.94;79.24;101952.06;15685500;28;20045;-67
2021/11/24 09:03:34;;;;;;;1999.90;999.90;;;;;;;9.89;79.75;101952.13;15686020;28;20106;-67
2021/11/24 09:11:09;;;;;;;1999.90;999.90;;;;;;;10.00;79.57;101950.84;15684066;28;20497;-67
2021/11/24 09:18:42;;;;;;;1999.90;999.90;;;;;;;10.22;78.90;101953.13;15683698;28;20051;-67
2021/11/24 09:26:18;;;;;;;1999.90;999.90;;;;;;;10.53;77.57;101948.75;15684465;28;20112;-68
2021/11/24 09:33:51;;;;;;;1999.90;999.90;;;;;;;10.22;78.41;101953.13;15683724;28;20426;-68
2021/11/24 09:41:26;;;;;;;1999.90;999.90;;;;;;;10.43;77.14;101951.69;15683611;28;20052;-67
2021/11/24 09:49:02;;;;;;;1999.90;999.90;;;;;;;10.53;76.83;101947.91;15682099;28;20123;-67
2021/11/24 09:56:39;;;;;;;1999.90;999.90;;;;;;;10.21;77.06;101945.81;15682564;28;20053;-68
2021/11/24 10:04:12;;;;;;;1999.90;999.90;;;;;;;10.36;76.60;101926.94;15682134;28;20068;-68
2021/11/24 10:11:47;;;;;;;1999.90;999.90;;;;;;;10.26;76.62;101912.31;15679707;28;20516;-68
2021/11/24 10:19:20;;;;;;;1999.90;999.90;;;;;;;10.35;75.78;101922.50;15678077;28;21076;-68
2021/11/24 10:27:32;;;;;;;1999.90;999.90;;;;;;;10.49;76.00;101908.59;15658596;28;20406;-68
2021/11/24 10:35:06;;;;;;;1999.90;999.90;;;;;;;10.06;76.56;101891.94;15714004;22;20033;-57
2021/11/24 10:42:43;;;;;;;1999.90;999.90;;;;;;;10.52;75.51;101882.03;15736155;28;20489;-57
2021/11/24 10:50:19;;;;;;;1999.90;999.90;;;;;;;10.37;74.99;101870.00;15735861;28;20049;-59
2021/11/24 10:58:02;;;;;;;1999.90;999.90;;;;;;;10.50;74.20;101861.97;15737051;28;20078;-58
2021/11/24 11:05:35;;;;;;;1999.90;999.90;;;;;;;10.70;73.90;101861.63;15735834;28;20055;-60
2021/11/24 11:13:12;;;;;;;1999.90;999.90;;;;;;;10.60;74.29;101856.22;15735080;28;20111;-59
2021/11/24 11:20:49;;;;;;;1999.90;999.90;;;;;;;10.56;74.18;101844.03;15737451;28;20165;-61
2021/11/24 11:28:25;;;;;;;1999.90;999.90;;;;;;;10.74;73.52;101833.94;15739522;28;20117;-61
2021/11/24 11:36:07;;;;;;;1999.90;999.90;;;;;;;10.76;74.17;101818.53;15736939;28;20423;-57
2021/11/24 11:43:43;;;;;;;1999.90;999.90;;;;;;;11.06;72.92;101821.88;15732830;28;20127;-59
2021/11/24 11:51:26;;;;;;;1999.90;999.90;;;;;;;12.34;68.12;101807.53;15715470;28;20044;-58
2021/11/24 11:59:04;;;;;;;1999.90;999.90;;;;;;;11.40;68.73;101804.69;15734349;28;20135;-58
2021/11/24 12:06:41;;;;;;;1999.90;999.90;;;;;;;11.56;68.95;101778.88;15731204;28;20119;-57
2021/11/24 12:14:42;;;;;;;1999.90;999.90;;;;;;;11.54;69.81;101777.53;15732739;28;20534;-59
2021/11/24 12:22:15;;;;;;;1999.90;999.90;;;;;;;11.44;69.13;101772.16;15731647;28;20113;-58
2021/11/24 12:29:51;;;;;;;1999.90;999.90;;;;;;;11.33;69.42;101759.56;15742204;28;20044;-60
2021/11/24 12:37:24;;;;;;;1999.90;999.90;;;;;;;11.13;70.05;101744.06;15744059;28;20469;-56
2021/11/24 12:44:58;;;;;;;1999.90;999.90;;;;;;;11.10;70.65;101739.13;15742110;28;20048;-59
2021/11/24 12:52:32;;;;;;;1999.90;999.90;;;;;;;10.97;71.04;101729.63;15743231;28;20068;-56
2021/11/24 13:00:24;;;;;;;1999.90;999.90;;;;;;;11.38;69.64;101721.16;15743492;28;20045;-58
2021/11/24 13:07:58;;;;;;;1999.90;999.90;;;;;;;11.33;69.36;101709.28;15741073;28;20048;-56
2021/11/24 13:15:33;;;;;;;1999.90;999.90;;;;;;;11.37;69.34;101708.34;15741493;28;20095;-60
2021/11/24 13:23:06;;;;;;;1999.90;999.90;;;;;;;11.20;68.98;101695.03;15708373;28;20204;-58
2021/11/24 13:30:46;;;;;;;1999.90;999.90;;;;;;;11.14;69.96;101684.25;15717875;28;20460;-61
2021/11/24 13:38:22;;;;;;;1999.90;999.90;;;;;;;10.86;70.55;101683.50;15700652;28;20089;-59
2021/11/24 13:45:57;;;;;;;1999.90;999.90;;;;;;;10.93;70.29;101672.72;15720161;28;20047;-55
2021/11/24 13:53:31;;;;;;;1999.90;999.90;;;;;;;10.90;70.21;101676.13;15714831;28;20596;-57
2021/11/24 14:01:15;;;;;;;1999.90;999.90;;;;;;;10.94;70.45;101680.81;15721855;28;20119;-61
2021/11/24 14:08:47;;;;;;;1999.90;999.90;;;;;;;10.92;70.64;101674.69;15714862;28;20371;-57
2021/11/24 14:16:29;;;;;;;1999.90;999.90;;;;;;;10.98;70.59;101667.84;15703014;28;20076;-59
2021/11/24 14:24:04;;;;;;;1999.90;999.90;;;;;;;10.78;70.81;101654.34;15684560;28;20041;-60
2021/11/24 14:31:39;;;;;;;1999.90;999.90;;;;;;;10.80;71.60;101648.44;15699669;28;20390;-60
2021/11/24 14:39:11;;;;;;;1999.90;999.90;;;;;;;10.70;73.10;101650.28;15737258;28;20091;-61
2021/11/24 14:46:46;;;;;;;1999.90;999.90;;;;;;;10.52;73.52;101644.81;15734090;28;20049;-58
2021/11/24 14:54:19;;;;;;;1999.90;999.90;;;;;;;10.50;73.47;101647.94;15735903;28;20404;-61
2021/11/24 15:01:54;;;;;;;1999.90;999.90;;;;;;;10.34;74.40;101635.44;15735170;28;20059;-59
2021/11/24 15:09:29;;;;;;;1999.90;999.90;;;;;;;10.37;74.21;101632.84;15734783;28;20097;-61
2021/11/24 15:17:03;;;;;;;1999.90;999.90;;;;;;;10.38;74.19;101633.66;15733489;28;20029;-59
2021/11/24 15:24:36;;;;;;;1999.90;999.90;;;;;;;10.27;74.37;101630.25;15734533;28;20058;-60
2021/11/24 15:32:11;;;;;;;1999.90;999.90;;;;;;;10.38;74.67;101626.13;15732054;28;20071;-59
2021/11/24 15:39:44;;;;;;;1999.90;999.90;;;;;;;10.27;74.59;101615.47;15734456;28;20488;-60
2021/11/24 15:47:23;;;;;;;1999.90;999.90;;;;;;;10.33;74.64;101600.31;15735033;28;20101;-61
2021/11/24 15:54:56;;;;;;;1999.90;999.90;;;;;;;10.15;75.35;101596.44;15716177;28;20040;-59
2021/11/24 16:02:32;;;;;;;1999.90;999.90;;;;;;;10.34;74.72;101593.59;15741772;28;20082;-62
2021/11/24 16:10:07;;;;;;;1999.90;999.90;;;;;;;10.35;74.82;101582.09;15745218;28;20068;-56
2021/11/24 16:17:41;;;;;;;1999.90;999.90;;;;;;;10.37;74.63;101577.03;15744656;28;20036;-61
2021/11/24 16:25:14;;;;;;;1999.90;999.90;;;;;;;10.32;74.73;101571.59;15739693;28;20075;-59
2021/11/24 16:32:50;;;;;;;1999.90;999.90;;;;;;;10.35;75.20;101582.09;15748664;22;20060;-63
2021/11/24 16:40:23;;;;;;;1999.90;999.90;;;;;;;10.18;75.39;101572.66;15707666;28;20040;-63
2021/11/24 16:47:57;;;;;;;1999.90;999.90;;;;;;;10.26;75.28;101558.03;15690028;28;20090;-63
2021/11/24 16:55:31;;;;;;;1999.90;999.90;;;;;;;10.22;75.14;101560.63;15654636;28;20553;-63
2021/11/24 17:03:05;;;;;;;1999.90;999.90;;;;;;;10.33;74.95;101555.66;15680085;28;20041;-62
2021/11/24 17:10:39;;;;;;;1999.90;999.90;;;;;;;10.30;74.70;101551.50;15662869;28;20050;-63
2021/11/24 17:18:13;;;;;;;1999.90;999.90;;;;;;;10.21;75.27;101541.34;15640115;28;20044;-62
2021/11/24 17:25:48;;;;;;;1999.90;999.90;;;;;;;10.13;75.25;101535.38;15662535;28;20132;-62
2021/11/24 17:33:23;;;;;;;1999.90;999.90;;;;;;;10.00;75.39;101521.44;15675430;28;20041;-59
2021/11/24 17:40:57;;;;;;;1999.90;999.90;;;;;;;10.02;75.20;101508.84;15667057;28;20081;-63
2021/11/24 17:48:33;;;;;;;1999.90;999.90;;;;;;;10.20;74.74;101495.09;15677715;28;20041;-62
2021/11/24 17:56:06;;;;;;;1999.90;999.90;;;;;;;9.70;75.93;101498.63;15666935;28;20049;-60
2021/11/24 18:03:40;;;;;;;1999.90;999.90;;;;;;;9.88;76.17;101494.06;15638796;28;20110;-57
2021/11/24 18:11:13;;;;;;;1999.90;999.90;;;;;;;9.87;75.77;101474.88;15654453;28;20041;-64
2021/11/24 18:18:49;;;;;;;1999.90;999.90;;;;;;;9.80;76.13;101475.28;15662604;28;20409;-62
2021/11/24 18:26:22;;;;;;;1999.90;999.90;;;;;;;10.03;75.19;101454.72;15662292;28;20425;-62
2021/11/24 18:33:56;;;;;;;1999.90;999.90;;;;;;;9.82;76.06;101457.13;15653051;28;20068;-63
2021/11/24 18:41:29;;;;;;;1999.90;999.90;;;;;;;9.46;77.31;101445.00;15649458;28;20053;-62
2021/11/24 18:49:04;;;;;;;1999.90;999.90;;;;;;;9.70;76.32;101439.28;15723959;28;20069;-64
2021/11/24 18:56:37;;;;;;;1999.90;999.90;;;;;;;9.74;75.80;101415.22;15640606;28;20060;-66
2021/11/24 19:04:11;;;;;;;1999.90;999.90;;;;;;;9.63;76.41;101419.34;15630796;28;20041;-63
2021/11/24 19:11:44;;;;;;;1999.90;999.90;;;;;;;9.70;75.87;101412.22;15629391;28;20046;-63
2021/11/24 19:19:19;;;;;;;1999.90;999.90;;;;;;;9.94;75.05;101400.00;15623234;28;20064;-64
2021/11/24 19:26:52;;;;;;;1999.90;999.90;;;;;;;9.63;76.29;101400.66;15669608;28;20068;-63
2021/11/24 19:34:26;;;;;;;1999.90;999.90;;;;;;;9.62;76.08;101395.41;15644993;28;20029;-64
2021/11/24 19:42:00;;;;;;;1999.90;999.90;;;;;;;9.73;75.94;101383.72;15658509;28;20396;-62
2021/11/24 19:49:34;;;;;;;;;;;;;;;9.67;75.56;101376.59;15603042;28;20045;-63
2021/11/24 19:57:07;;;;;;;1999.90;999.90;;;;;;;9.44;76.33;101366.50;15651325;28;20246;-64
2021/11/24 20:04:42;;;;;;;1999.90;999.90;;;;;;;9.52;76.03;101366.59;15617876;28;20053;-64
2021/11/24 20:12:15;;;;;;;1999.90;999.90;;;;;;;9.53;75.74;101351.53;15638877;28;20053;-63
2021/11/24 20:19:49;;;;;;;1999.90;999.90;;;;;;;9.49;75.49;101353.31;15597667;28;20056;-64
2021/11/24 20:27:23;;;;;;;1999.90;999.90;;;;;;;9.41;75.67;101344.84;15608140;28;20045;-64
2021/11/24 20:34:57;;;;;;;1999.90;999.90;;;;;;;9.47;75.26;101332.44;15653690;28;20037;-62
2021/11/24 20:42:32;;;;;;;1999.90;999.90;;;;;;;9.44;75.24;101319.97;15640566;28;20126;-63
2021/11/24 20:50:11;;;;;;;1999.90;999.90;;;;;;;9.34;75.12;101314.59;15659020;28;20167;-63
2021/11/24 20:57:45;;;;;;;1999.90;999.90;;;;;;;9.30;74.97;101305.25;15666357;28;20436;-63
2021/11/24 21:05:19;;;;;;;1999.90;999.90;;;;;;;9.33;73.83;101301.81;15638300;28;20514;-63
2021/11/24 21:12:53;;;;;;;1999.90;999.90;;;;;;;9.33;73.58;101307.41;15652105;28;20073;-63
2021/11/24 21:20:27;;;;;;;1999.90;999.90;;;;;;;9.39;72.82;101294.19;15625863;28;20458;-62
2021/11/24 21:28:03;;;;;;;1999.90;999.90;;;;;;;9.28;72.14;101281.63;15655568;28;20064;-63
2021/11/24 21:35:38;;;;;;;1999.90;999.90;;;;;;;9.27;72.02;101264.06;15657530;28;20051;-61
2021/11/24 21:43:11;;;;;;;1999.90;999.90;;;;;;;9.42;71.49;101252.59;15650192;28;20358;-60
2021/11/24 21:50:45;;;;;;;1999.90;999.90;;;;;;;9.43;70.89;101248.69;15659016;28;20045;-59
2021/11/24 21:58:18;;;;;;;1999.90;999.90;;;;;;;9.22;71.11;101244.69;15645189;28;20049;-60
2021/11/24 22:05:53;;;;;;;1999.90;999.90;;;;;;;9.43;70.74;101243.09;15634926;28;20461;-61
2021/11/24 22:13:29;;;;;;;1999.90;999.90;;;;;;;9.22;67.47;101239.94;15627750;28;20045;-59
2021/11/24 22:21:06;;;;;;;1999.90;999.90;;;;;;;9.15;68.44;101219.22;15628052;28;20059;-64
2021/11/24 22:28:39;;;;;;;1999.90;999.90;;;;;;;9.15;69.15;101217.25;15615736;28;20489;-64
2021/11/24 22:36:14;;;;;;;1999.90;999.90;;;;;;;9.33;68.82;101206.31;15610472;28;20193;-62
2021/11/24 22:43:50;;;;;;;1999.90;999.90;;;;;;;9.13;68.18;101197.25;15639668;28;20411;-60
2021/11/24 22:51:24;;;;;;;1999.90;999.90;;;;;;;8.79;67.79;101164.31;15635269;28;20152;-60
2021/11/24 22:58:57;;;;;;;1999.90;999.90;;;;;;;8.83;66.61;101156.16;15700964;28;20048;-60
2021/11/24 23:06:34;;;;;;;1999.90;999.90;;;;;;;8.91;65.72;101155.44;15656005;28;20049;-61
2021/11/24 23:14:07;;;;;;;1999.90;999.90;;;;;;;8.67;64.98;101147.31;15665737;28;20212;-61
2021/11/24 23:21:42;;;;;;;1999.90;999.90;;;;;;;8.92;64.70;101154.28;15651458;28;20049;-62
2021/11/24 23:29:15;;;;;;;1999.90;999.90;;;;;;;9.04;64.34;101145.41;15613710;28;20069;-59
2021/11/24 23:36:49;;;;;;;1999.90;999.90;;;;;;;8.98;65.01;101132.75;15647679;28;20482;-63
2021/11/24 23:44:22;;;;;;;1999.90;999.90;;;;;;;9.20;64.97;101118.88;15627302;28;20136;-63
2021/11/24 23:51:56;;;;;;;1999.90;999.90;;;;;;;9.03;65.51;101119.53;15634408;28;20411;-62
2021/11/24 23:59:29;;;;;;;1999.90;999.90;;;;;;;8.57;66.14;101098.28;15613869;28;20060;-63
